Time;durP1;ratioP1;P1;durP2;ratioP2;P2;SDS_P1;SDS_P2;PMS_P1;PMS_P2;Temp;Humidity;BMP_temperature;BMP_pressure;BME280_temperature;BME280_humidity;BME280_pressure;Samples;Min_cycle;Max_cycle;Signal;HPM_P1;HPM_P2
2024/03/18 00:00:51;;;;;;;;;;;;;;;7.65;67.14;96431.53;7394081;19;1845;-69
2024/03/18 00:03:20;;;;;;;;;;;;;;;7.67;66.92;96440.19;7395594;19;1053;-69
2024/03/18 00:05:48;;;;;;;;;;;;;;;7.72;67.02;96440.06;7395622;19;1025;-68
2024/03/18 00:08:17;;;;;;;;;;;;;;;7.87;66.22;96437.91;7395541;19;932;-69
2024/03/18 00:10:45;;;;;;;;;;;;;;;7.97;65.40;96435.00;7394808;19;1455;-71
2024/03/18 00:13:14;;;;;;;;;;;;;;;8.20;65.09;96433.47;7395742;19;1124;-66
2024/03/18 00:15:42;;;;;;;;;;;;;;;8.39;63.29;96426.81;7395212;19;1026;-67
2024/03/18 00:18:13;;;;;;;;;;;;;;;8.59;62.49;96429.69;7395466;19;1367;-67
2024/03/18 00:20:42;;;;;;;;;;;;;;;8.77;61.65;96421.31;7394154;19;1908;-65
2024/03/18 00:23:10;;;;;;;;;;;;;;;8.94;61.77;96421.59;7395543;19;1017;-69
2024/03/18 00:25:39;;;;;;;;;;;;;;;8.99;62.04;96418.84;7395714;19;1193;-70
2024/03/18 00:28:10;;;;;;;;;;;;;;;8.96;60.42;96419.81;7394815;19;1647;-69
2024/03/18 00:30:39;;;;;;;;;;;;;;;9.05;60.51;96417.78;7394841;19;1018;-68
2024/03/18 00:33:08;;;;;;;;;;;;;;;9.12;60.11;96419.28;7395097;19;1397;-68
2024/03/18 00:35:39;;;;;;;;;;;;;;;9.23;60.21;96411.94;7395142;19;1057;-69
2024/03/18 00:38:08;;;;;;;;;;;;;;;9.35;59.95;96412.41;7395095;19;1047;-68
2024/03/18 00:40:36;;;;;;;;;;;;;;;9.38;58.36;96414.94;7393712;19;1857;-68
2024/03/18 00:43:03;;;;;;;;;;;;;;;9.42;57.58;96406.06;7394409;19;1100;-67
2024/03/18 00:45:32;;;;;;;;;;;;;;;9.51;58.21;96407.50;7394369;19;1072;-68
2024/03/18 00:48:00;;;;;;;;;;;;;;;9.43;58.33;96407.78;7394856;19;1024;-70
2024/03/18 00:50:28;;;;;;;;;;;;;;;9.46;56.47;96396.38;7394760;19;1139;-70
2024/03/18 00:52:59;;;;;;;;;;;;;;;9.56;55.93;96404.72;7394933;19;1267;-66
2024/03/18 00:55:28;;;;;;;;;;;;;;;9.66;55.26;96400.88;7394154;19;1061;-66
2024/03/18 00:57:56;;;;;;;;;;;;;;;9.67;55.10;96397.38;7394486;19;1088;-69
2024/03/18 01:00:25;;;;;;;;;;;;;;;9.73;54.15;96397.13;7393492;19;1834;-71
2024/03/18 01:02:53;;;;;;;;;;;;;;;9.73;54.54;96404.13;7401628;19;1039;-66
2024/03/18 01:05:22;;;;;;;;;;;;;;;9.72;54.18;96399.78;7402052;19;1126;-69
2024/03/18 01:07:50;;;;;;;;;;;;;;;9.74;53.10;96400.59;7402185;19;1162;-66
2024/03/18 01:10:21;;;;;;;;;;;;;;;9.74;54.12;96395.38;7400853;19;1134;-70
2024/03/18 01:12:50;;;;;;;;;;;;;;;9.78;53.66;96394.34;7401254;19;1120;-71
2024/03/18 01:15:19;;;;;;;;;;;;;;;9.75;53.48;96389.22;7401727;19;942;-69
2024/03/18 01:17:47;;;;;;;;;;;;;;;9.78;52.97;96393.50;7401089;19;1269;-64
2024/03/18 01:20:18;;;;;;;;;;;;;;;9.69;52.28;96389.47;7399915;19;1846;-69
2024/03/18 01:22:48;;;;;;;;;;;;;;;9.75;52.64;96394.44;7401084;19;1160;-69
2024/03/18 01:25:17;;;;;;;;;;;;;;;9.72;52.41;96384.13;7400952;19;1255;-66
2024/03/18 01:27:48;;;;;;;;;;;;;;;9.69;52.58;96384.25;7401543;19;1197;-67
2024/03/18 01:30:18;;;;;;;;;;;;;;;9.67;51.90;96384.31;7400762;19;1184;-67
2024/03/18 01:32:46;;;;;;;;;;;;;;;9.66;51.51;96379.13;7400649;19;1073;-65
2024/03/18 01:35:15;;;;;;;;;;;;;;;9.70;51.72;96383.34;7400883;19;1402;-66
2024/03/18 01:37:44;;;;;;;;;;;;;;;9.68;51.51;96379.91;7400874;19;1046;-70
2024/03/18 01:40:13;;;;;;;;;;;;;;;9.69;51.28;96377.25;7399199;19;1838;-69
2024/03/18 01:42:42;;;;;;;;;;;;;;;9.72;50.42;96378.88;7401060;19;1010;-67
2024/03/18 01:45:13;;;;;;;;;;;;;;;9.78;50.05;96373.44;7400732;19;1037;-69
2024/03/18 01:47:42;;;;;;;;;;;;;;;9.72;50.84;96377.13;7400050;19;1049;-69
2024/03/18 01:50:13;;;;;;;;;;;;;;;9.78;50.01;96377.84;7400403;19;1474;-69
2024/03/18 01:52:41;;;;;;;;;;;;;;;9.85;49.84;96371.47;7399982;19;1006;-70
2024/03/18 01:55:11;;;;;;;;;;;;;;;9.84;49.89;96375.81;7399881;19;915;-66
2024/03/18 01:57:40;;;;;;;;;;;;;;;9.84;49.35;96373.22;7400031;19;1437;-67
2024/03/18 02:00:15;;;;;;;;;;;;;;;9.93;48.75;96365.97;7398933;19;1837;-71
2024/03/18 02:02:47;;;;;;;;;;;;;;;9.91;48.41;96373.00;7399600;19;1069;-65
2024/03/18 02:05:15;;;;;;;;;;;;;;;9.85;48.33;96364.47;7400158;19;945;-69
2024/03/18 02:07:44;;;;;;;;;;;;;;;9.88;47.83;96371.34;7399388;19;1023;-69
2024/03/18 02:10:12;;;;;;;;;;;;;;;9.85;47.92;96363.63;7398654;19;1136;-65
2024/03/18 02:12:41;;;;;;;;;;;;;;;9.91;47.21;96367.75;7398896;19;1167;-68
2024/03/18 02:15:11;;;;;;;;;;;;;;;9.90;47.76;96364.28;7399358;19;1069;-66
2024/03/18 02:17:40;;;;;;;;;;;;;;;9.84;47.84;96365.38;7399755;19;1021;-65
2024/03/18 02:20:12;;;;;;;;;;;;;;;9.85;47.24;96364.47;7398691;19;1829;-70
2024/03/18 02:22:43;;;;;;;;;;;;;;;9.77;47.63;96360.44;7399093;19;1093;-67
2024/03/18 02:25:11;;;;;;;;;;;;;;;9.86;47.48;96360.97;7399063;19;1132;-70
2024/03/18 02:27:40;;;;;;;;;;;;;;;9.81;47.39;96357.66;7399150;19;1461;-64
2024/03/18 02:30:09;;;;;;;;;;;;;;;9.76;47.52;96350.91;7399459;19;953;-69
2024/03/18 02:32:41;;;;;;;;;;;;;;;9.71;47.21;96354.56;7398659;19;1034;-69
2024/03/18 02:35:11;;;;;;;;;;;;;;;9.75;47.22;96362.28;7398641;19;1120;-69
2024/03/18 02:37:43;;;;;;;;;;;;;;;9.81;47.04;96364.66;7398589;19;1014;-67
2024/03/18 02:40:12;;;;;;;;;;;;;;;9.82;46.53;96356.72;7397794;19;1839;-67
2024/03/18 02:42:42;;;;;;;;;;;;;;;9.85;46.76;96361.00;7398791;19;1350;-68
2024/03/18 02:45:11;;;;;;;;;;;;;;;9.88;46.27;96362.66;7398983;19;1038;-68
2024/03/18 02:47:39;;;;;;;;;;;;;;;9.90;46.82;96366.06;7398163;19;983;-70
2024/03/18 02:50:09;;;;;;;;;;;;;;;9.96;46.19;96366.66;7398823;19;1267;-72
2024/03/18 02:52:39;;;;;;;;;;;;;;;9.95;46.50;96356.28;7398103;19;1011;-65
2024/03/18 02:55:10;;;;;;;;;;;;;;;9.95;46.17;96357.13;7397957;19;1017;-66
2024/03/18 02:57:39;;;;;;;;;;;;;;;10.02;46.16;96359.53;7397881;19;1056;-67
2024/03/18 03:00:10;;;;;;;;;;;;;;;9.96;47.00;96364.06;7397747;19;1841;-67
2024/03/18 03:02:38;;;;;;;;;;;;;;;9.90;46.94;96360.84;7397675;19;1080;-72
2024/03/18 03:05:07;;;;;;;;;;;;;;;9.86;46.93;96360.97;7397926;19;1416;-67
2024/03/18 03:07:35;;;;;;;;;;;;;;;9.84;46.97;96361.91;7397532;19;1155;-67
2024/03/18 03:10:04;;;;;;;;;;;;;;;9.79;47.86;96356.88;7396943;19;1053;-70
2024/03/18 03:12:35;;;;;;;;;;;;;;;9.71;48.29;96362.38;7397402;19;1017;-69
2024/03/18 03:15:04;;;;;;;;;;;;;;;9.64;49.25;96360.06;7397815;19;1012;-65
2024/03/18 03:17:33;;;;;;;;;;;;;;;9.54;48.77;96360.38;7397730;19;1046;-64
2024/03/18 03:19:59;;;;;;;;;;;;;;;9.38;49.57;96354.00;7397114;19;1845;-66
2024/03/18 03:22:28;;;;;;;;;;;;;;;9.13;49.74;96352.28;7397435;19;1011;-69
2024/03/18 03:24:56;;;;;;;;;;;;;;;9.00;50.17;96354.50;7395482;19;1100;-71
2024/03/18 03:27:26;;;;;;;;;;;;;;;8.92;50.53;96352.13;7396855;19;1013;-66
2024/03/18 03:29:57;;;;;;;;;;;;;;;8.82;48.52;96356.81;7397562;19;951;-66
2024/03/18 03:32:26;;;;;;;;;;;;;;;8.82;49.93;96349.84;7396799;19;1108;-70
2024/03/18 03:34:54;;;;;;;;;;;;;;;8.80;49.95;96351.66;7397112;19;1017;-67
2024/03/18 03:37:24;;;;;;;;;;;;;;;8.77;49.03;96358.72;7397256;19;1264;-70
2024/03/18 03:39:52;;;;;;;;;;;;;;;8.85;48.40;96354.09;7396439;19;1093;-67
2024/03/18 03:42:21;;;;;;;;;;;;;;;8.92;47.36;96354.75;7396365;19;1021;-69
2024/03/18 03:44:49;;;;;;;;;;;;;;;8.89;46.97;96350.50;7396696;19;1403;-65
2024/03/18 03:47:20;;;;;;;;;;;;;;;8.97;47.25;96353.69;7396810;19;1013;-68
2024/03/18 03:49:50;;;;;;;;;;;;;;;9.05;46.93;96347.34;7396254;19;1113;-70
2024/03/18 03:52:18;;;;;;;;;;;;;;;9.16;46.76;96354.78;7396886;19;1281;-67
2024/03/18 03:54:47;;;;;;;;;;;;;;;9.19;46.75;96347.72;7396527;19;1052;-66
2024/03/18 03:57:15;;;;;;;;;;;;;;;9.19;46.63;96345.13;7396273;19;1071;-67
2024/03/18 03:59:43;;;;;;;;;;;;;;;9.20;46.76;96353.78;7396083;19;1413;-68
2024/03/18 04:02:12;;;;;;;;;;;;;;;9.19;46.66;96352.94;7393998;19;1905;-69
2024/03/18 04:04:43;;;;;;;;;;;;;;;9.20;46.55;96356.38;7395698;19;1029;-66
2024/03/18 04:07:13;;;;;;;;;;;;;;;9.02;46.99;96342.22;7395506;19;1392;-69
2024/03/18 04:09:41;;;;;;;;;;;;;;;8.93;46.76;96348.63;7395501;19;1084;-66
2024/03/18 04:12:10;;;;;;;;;;;;;;;8.84;47.32;96348.03;7393545;19;1096;-68
2024/03/18 04:14:39;;;;;;;;;;;;;;;8.76;48.25;96342.22;7395669;19;1346;-69
2024/03/18 04:17:10;;;;;;;;;;;;;;;8.72;47.58;96351.06;7395285;19;1829;-67
2024/03/18 04:19:38;;;;;;;;;;;;;;;8.68;47.64;96345.09;7395249;19;1026;-69
2024/03/18 04:22:10;;;;;;;;;;;;;;;8.64;47.94;96347.84;7393862;19;1841;-67
2024/03/18 04:24:39;;;;;;;;;;;;;;;8.61;48.25;96340.13;7395071;19;1123;-68
2024/03/18 04:27:07;;;;;;;;;;;;;;;8.59;47.81;96345.41;7395435;19;980;-66
2024/03/18 04:29:36;;;;;;;;;;;;;;;8.49;48.85;96344.81;7395217;19;1376;-66
2024/03/18 04:32:05;;;;;;;;;;;;;;;8.51;48.02;96339.53;7394782;19;1042;-67
2024/03/18 04:34:34;;;;;;;;;;;;;;;8.51;47.58;96345.63;7394703;19;1189;-69
2024/03/18 04:37:02;;;;;;;;;;;;;;;8.54;48.24;96345.56;7394860;19;1512;-69
2024/03/18 04:39:33;;;;;;;;;;;;;;;8.55;48.36;96342.03;7394568;19;1013;-69
2024/03/18 04:42:05;;;;;;;;;;;;;;;8.58;47.97;96343.72;7393657;19;1841;-65
2024/03/18 04:44:34;;;;;;;;;;;;;;;8.59;47.83;96351.47;7392677;19;2057;-65
2024/03/18 04:47:02;;;;;;;;;;;;;;;8.51;47.79;96355.19;7394396;19;1101;-66
2024/03/18 04:49:31;;;;;;;;;;;;;;;8.46;49.05;96340.56;7394325;19;1009;-68
2024/03/18 04:51:59;;;;;;;;;;;;;;;8.46;48.64;96348.38;7394580;19;1477;-70
2024/03/18 04:54:28;;;;;;;;;;;;;;;8.40;48.34;96350.34;7394287;19;1013;-71
2024/03/18 04:56:59;;;;;;;;;;;;;;;8.44;48.75;96342.38;7394213;19;983;-67
2024/03/18 04:59:28;;;;;;;;;;;;;;;8.48;49.46;96348.31;7394622;19;984;-67
2024/03/18 05:01:57;;;;;;;;;;;;;;;8.43;50.34;96352.84;7393337;19;1830;-69
2024/03/18 05:04:26;;;;;;;;;;;;;;;8.34;50.02;96346.19;7394025;19;1061;-69
2024/03/18 05:06:54;;;;;;;;;;;;;;;8.26;50.06;96353.38;7394646;19;1287;-69
2024/03/18 05:09:23;;;;;;;;;;;;;;;8.53;52.41;96349.03;7393816;19;1100;-67
2024/03/18 05:11:51;;;;;;;;;;;;;;;9.46;50.63;96357.22;7391928;19;1091;-66
2024/03/18 05:14:23;;;;;;;;;;;;;;;10.64;47.86;96358.84;7393869;19;1533;-71
2024/03/18 05:16:51;;;;;;;;;;;;;;;11.83;44.44;96363.31;7393631;19;1359;-70
2024/03/18 05:19:20;;;;;;;;;;;;;;;12.87;42.11;96354.97;7390143;19;1451;-67
2024/03/18 05:21:49;;;;;;;;;;;;;;;13.79;40.22;96366.97;7392620;19;1825;-65
2024/03/18 05:24:17;;;;;;;;;;;;;;;14.72;38.73;96361.81;7393504;19;1052;-68
2024/03/18 05:26:46;;;;;;;;;;;;;;;15.48;37.34;96359.22;7393491;19;999;-67
2024/03/18 05:29:15;;;;;;;;;;;;;;;16.18;35.76;96364.63;7394214;19;1005;-68
2024/03/18 05:31:46;;;;;;;;;;;;;;;17.02;35.22;96350.44;7393289;19;1077;-69
2024/03/18 05:34:15;;;;;;;;;;;;;;;17.88;33.75;96358.72;7393716;19;1008;-64
2024/03/18 05:36:44;;;;;;;;;;;;;;;18.51;32.71;96355.19;7393914;19;1071;-67
2024/03/18 05:39:13;;;;;;;;;;;;;;;18.80;31.94;96356.63;7393169;19;1080;-67
2024/03/18 05:41:42;;;;;;;;;;;;;;;19.32;31.16;96365.13;7391917;19;1838;-65
2024/03/18 05:44:10;;;;;;;;;;;;;;;19.92;30.36;96366.75;7393282;19;1501;-67
2024/03/18 05:46:39;;;;;;;;;;;;;;;20.36;30.51;96370.47;7394002;19;1021;-65
2024/03/18 05:49:10;;;;;;;;;;;;;;;21.01;29.53;96370.53;7400295;19;994;-67
2024/03/18 05:51:38;;;;;;;;;;;;;;;21.60;28.96;96367.41;7400086;19;1033;-66
2024/03/18 05:54:07;;;;;;;;;;;;;;;21.84;28.15;96369.81;7400052;19;1017;-68
2024/03/18 05:56:35;;;;;;;;;;;;;;;22.28;26.68;96373.19;7399925;19;1018;-67
2024/03/18 05:59:04;;;;;;;;;;;;;;;22.70;25.95;96373.00;7400262;19;1402;-69
2024/03/18 06:01:32;;;;;;;;;;;;;;;23.05;26.24;96380.59;7399318;19;1837;-71
2024/03/18 06:04:01;;;;;;;;;;;;;;;23.30;25.77;96376.50;7399809;19;990;-69
2024/03/18 06:06:32;;;;;;;;;;;;;;;23.33;24.80;96381.53;7400397;19;1300;-70
2024/03/18 06:09:01;;;;;;;;;;;;;;;23.65;24.80;96381.38;7399902;19;957;-70
2024/03/18 06:11:29;;;;;;;;;;;;;;;23.98;23.55;96380.00;7397616;19;1101;-67
2024/03/18 06:13:58;;;;;;;;;;;;;;;24.46;23.88;96379.09;7399960;19;1014;-67
2024/03/18 06:16:26;;;;;;;;;;;;;;;24.83;25.34;96380.00;7399809;19;1467;-69
2024/03/18 06:18:54;;;;;;;;;;;;;;;25.20;23.89;96383.53;7399554;19;1367;-70
2024/03/18 06:21:28;;;;;;;;;;;;;;;25.14;22.51;96381.47;7398416;19;1842;-71
2024/03/18 06:24:07;;;;;;;;;;;;;;;25.06;23.03;96372.38;7399097;19;1021;-69
2024/03/18 06:26:33;;;;;;;;;;;;;;;24.68;23.03;96377.81;7398965;19;1030;-68
2024/03/18 06:29:01;;;;;;;;;;;;;;;24.06;23.81;96368.59;7396468;19;1304;-66
2024/03/18 06:31:33;;;;;;;;;;;;;;;24.08;24.80;96365.78;7398709;19;1049;-69
2024/03/18 06:34:02;;;;;;;;;;;;;;;24.63;24.18;96358.75;7398620;19;1049;-69
2024/03/18 06:36:30;;;;;;;;;;;;;;;24.61;24.07;96358.03;7399348;19;1282;-66
2024/03/18 06:39:02;;;;;;;;;;;;;;;24.68;24.10;96358.28;7398512;19;1151;-67
2024/03/18 06:41:30;;;;;;;;;;;;;;;24.51;24.55;96363.47;7397761;19;1850;-67
2024/03/18 06:43:59;;;;;;;;;;;;;;;24.38;24.30;96363.81;7398542;19;1434;-67
2024/03/18 06:46:27;;;;;;;;;;;;;;;24.38;24.24;96353.13;7398553;19;1048;-68
2024/03/18 06:48:56;;;;;;;;;;;;;;;24.58;25.00;96358.34;7398662;19;1200;-67
2024/03/18 06:51:24;;;;;;;;;;;;;;;24.29;24.27;96362.06;7398795;19;1265;-66
2024/03/18 06:53:53;;;;;;;;;;;;;;;23.90;23.88;96352.38;7398060;19;1100;-68
2024/03/18 06:56:24;;;;;;;;;;;;;;;23.29;24.15;96349.97;7398376;19;1029;-71
2024/03/18 06:58:52;;;;;;;;;;;;;;;23.13;25.01;96350.53;7395500;19;1009;-64
2024/03/18 07:01:22;;;;;;;;;;;;;;;22.67;25.26;96348.47;7397349;19;1849;-67
2024/03/18 07:03:50;;;;;;;;;;;;;;;22.13;25.54;96349.59;7397689;19;1137;-65
2024/03/18 07:06:18;;;;;;;;;;;;;;;21.53;25.51;96339.66;7398422;19;1194;-69
2024/03/18 07:08:47;;;;;;;;;;;;;;;21.12;27.09;96336.88;7398064;19;955;-65
2024/03/18 07:11:16;;;;;;;;;;;;;;;20.36;26.12;96341.25;7396181;19;1192;-69
2024/03/18 07:13:47;;;;;;;;;;;;;;;20.53;27.06;96339.91;7397836;19;949;-70
2024/03/18 07:16:16;;;;;;;;;;;;;;;20.74;27.36;96326.63;7397738;19;1108;-65
2024/03/18 07:18:44;;;;;;;;;;;;;;;20.98;25.54;96330.09;7397081;19;1164;-66
2024/03/18 07:21:13;;;;;;;;;;;;;;;20.68;25.57;96322.69;7397044;19;1833;-69
2024/03/18 07:23:42;;;;;;;;;;;;;;;20.73;25.74;96318.78;7397248;19;1013;-67
2024/03/18 07:26:10;;;;;;;;;;;;;;;21.16;25.52;96325.84;7397843;19;1222;-67
2024/03/18 07:28:39;;;;;;;;;;;;;;;21.08;25.34;96331.00;7396828;19;932;-69
2024/03/18 07:31:13;;;;;;;;;;;;;;;20.70;25.40;96309.25;7396862;19;1084;-66
2024/03/18 07:33:42;;;;;;;;;;;;;;;20.69;25.51;96310.25;7396861;19;1049;-69
2024/03/18 07:36:10;;;;;;;;;;;;;;;20.89;24.14;96308.56;7396829;19;1037;-66
2024/03/18 07:38:39;;;;;;;;;;;;;;;21.14;24.80;96305.69;7396563;19;2279;-65
2024/03/18 07:41:07;;;;;;;;;;;;;;;20.88;22.85;96293.59;7396846;19;1377;-65
2024/03/18 07:43:36;;;;;;;;;;;;;;;20.59;24.78;96288.91;7395151;19;1849;-66
2024/03/18 07:46:04;;;;;;;;;;;;;;;20.69;25.29;96289.00;7396784;19;973;-66
2024/03/18 07:48:35;;;;;;;;;;;;;;;20.80;24.54;96288.09;7397017;19;938;-69
2024/03/18 07:51:08;;;;;;;;;;;;;;;21.13;23.40;96286.22;7396650;19;1013;-67
2024/03/18 07:53:36;;;;;;;;;;;;;;;21.23;22.80;96288.97;7396130;19;1049;-66
2024/03/18 07:56:05;;;;;;;;;;;;;;;20.48;24.17;96276.53;7396332;19;1445;-69
2024/03/18 07:58:33;;;;;;;;;;;;;;;20.17;27.02;96271.91;7395971;19;1002;-68
2024/03/18 08:01:02;;;;;;;;;;;;;;;20.42;24.60;96277.03;7395836;19;1088;-69
2024/03/18 08:03:30;;;;;;;;;;;;;;;19.93;25.41;96272.88;7394550;19;1842;-69
2024/03/18 08:06:01;;;;;;;;;;;;;;;19.24;27.52;96271.25;7395749;19;1009;-65
2024/03/18 08:08:30;;;;;;;;;;;;;;;19.44;29.10;96274.97;7396203;19;1012;-67
2024/03/18 08:10:58;;;;;;;;;;;;;;;19.88;26.65;96277.75;7394502;19;1209;-68
2024/03/18 08:13:27;;;;;;;;;;;;;;;20.17;25.61;96263.94;7395559;19;987;-67
2024/03/18 08:15:55;;;;;;;;;;;;;;;19.92;25.42;96259.75;7395438;19;1081;-66
2024/03/18 08:18:23;;;;;;;;;;;;;;;19.52;26.96;96251.38;7396156;19;1288;-68
2024/03/18 08:20:52;;;;;;;;;;;;;;;19.19;26.66;96268.94;7395310;19;1069;-70
2024/03/18 08:23:23;;;;;;;;;;;;;;;18.79;26.88;96260.41;7393937;19;1838;-67
2024/03/18 08:25:51;;;;;;;;;;;;;;;18.91;27.12;96250.69;7395185;19;1272;-68
2024/03/18 08:28:20;;;;;;;;;;;;;;;19.26;27.47;96262.19;7395224;19;998;-68
2024/03/18 08:30:48;;;;;;;;;;;;;;;19.57;27.59;96261.63;7395628;19;959;-69
2024/03/18 08:33:17;;;;;;;;;;;;;;;19.70;26.52;96264.97;7395864;19;1295;-65
2024/03/18 08:35:45;;;;;;;;;;;;;;;19.93;25.80;96253.50;7395729;19;1182;-65
2024/03/18 08:38:14;;;;;;;;;;;;;;;20.17;26.28;96257.81;7394872;19;1045;-70
2024/03/18 08:40:45;;;;;;;;;;;;;;;20.09;25.10;96255.78;7395404;19;1191;-67
2024/03/18 08:43:13;;;;;;;;;;;;;;;20.48;26.71;96249.09;7393880;19;1846;-70
2024/03/18 08:45:41;;;;;;;;;;;;;;;20.23;23.96;96237.88;7395017;19;1030;-67
2024/03/18 08:48:10;;;;;;;;;;;;;;;20.11;27.86;96239.72;7395326;19;1315;-64
2024/03/18 08:50:38;;;;;;;;;;;;;;;20.08;26.63;96241.63;7394435;19;1009;-66
2024/03/18 08:53:07;;;;;;;;;;;;;;;19.97;26.31;96238.16;7394414;19;1575;-69
2024/03/18 08:55:36;;;;;;;;;;;;;;;19.85;26.09;96237.31;7394616;19;1384;-67
2024/03/18 08:58:07;;;;;;;;;;;;;;;19.95;26.50;96232.97;7394221;19;1025;-66
2024/03/18 09:00:35;;;;;;;;;;;;;;;19.84;25.64;96231.19;7394110;19;1133;-68
2024/03/18 09:03:04;;;;;;;;;;;;;;;19.68;26.99;96226.25;7393716;19;1849;-68
2024/03/18 09:05:33;;;;;;;;;;;;;;;19.41;29.00;96219.53;7393976;19;1108;-68
2024/03/18 09:08:03;;;;;;;;;;;;;;;19.55;29.80;96224.59;7393994;19;1025;-68
2024/03/18 09:10:32;;;;;;;;;;;;;;;19.79;26.19;96226.25;7392987;19;1097;-67
2024/03/18 09:13:01;;;;;;;;;;;;;;;20.06;26.88;96227.66;7393774;19;1064;-68
2024/03/18 09:15:33;;;;;;;;;;;;;;;20.14;25.46;96213.75;7394253;19;1002;-67
2024/03/18 09:18:02;;;;;;;;;;;;;;;20.08;26.61;96220.41;7394190;19;1016;-68
2024/03/18 09:20:30;;;;;;;;;;;;;;;20.05;26.83;96217.19;7394040;19;1038;-66
2024/03/18 09:22:59;;;;;;;;;;;;;;;20.18;25.86;96207.22;7397888;19;1856;-68
2024/03/18 09:25:27;;;;;;;;;;;;;;;19.32;25.49;96213.16;7401808;19;1288;-68
2024/03/18 09:27:56;;;;;;;;;;;;;;;19.24;26.37;96211.13;7401075;19;1021;-70
2024/03/18 09:30:24;;;;;;;;;;;;;;;19.24;26.56;96203.19;7401414;19;965;-69
2024/03/18 09:32:55;;;;;;;;;;;;;;;19.12;30.84;96188.22;7401192;19;1610;-66
2024/03/18 09:35:24;;;;;;;;;;;;;;;19.18;25.81;96196.53;7400765;19;1114;-69
2024/03/18 09:37:53;;;;;;;;;;;;;;;19.11;26.73;96192.66;7400722;19;1090;-66
2024/03/18 09:40:21;;;;;;;;;;;;;;;19.15;28.49;96191.47;7401288;19;1177;-68
2024/03/18 09:42:49;;;;;;;;;;;;;;;19.31;28.33;96188.47;7399416;19;1838;-68
2024/03/18 09:45:18;;;;;;;;;;;;;;;19.32;28.50;96182.19;7400904;19;1001;-68
2024/03/18 09:47:47;;;;;;;;;;;;;;;19.55;27.70;96179.50;7401088;19;1252;-65
2024/03/18 09:50:19;;;;;;;;;;;;;;;19.20;28.12;96177.84;7400242;19;1033;-66
2024/03/18 09:52:48;;;;;;;;;;;;;;;18.48;30.95;96177.16;7400618;19;1029;-63
2024/03/18 09:55:27;;;;;;;;;;;;;;;18.26;29.40;96163.75;7400399;19;1469;-69
2024/03/18 09:57:58;;;;;;;;;;;;;;;18.28;31.95;96179.50;7400067;19;1194;-69
2024/03/18 10:00:27;;;;;;;;;;;;;;;18.20;30.03;96185.38;7400011;19;1017;-67
2024/03/18 10:02:55;;;;;;;;;;;;;;;18.16;31.39;96174.19;7398805;19;1821;-66
2024/03/18 10:05:26;;;;;;;;;;;;;;;18.58;28.90;96175.50;7399726;19;1186;-65
2024/03/18 10:07:57;;;;;;;;;;;;;;;18.90;30.33;96169.50;7399708;19;1021;-66
2024/03/18 10:10:26;;;;;;;;;;;;;;;18.97;28.58;96161.94;7398787;19;1194;-63
2024/03/18 10:12:55;;;;;;;;;;;;;;;18.91;29.90;96163.22;7399437;19;1144;-66
2024/03/18 10:15:23;;;;;;;;;;;;;;;18.75;29.35;96166.25;7399446;19;1042;-68
2024/03/18 10:17:52;;;;;;;;;;;;;;;18.80;30.13;96158.78;7399664;19;1366;-67
2024/03/18 10:20:21;;;;;;;;;;;;;;;18.86;29.41;96146.00;7399360;19;1194;-67
2024/03/18 10:22:54;;;;;;;;;;;;;;;19.21;31.14;96152.19;7398491;19;1842;-65
2024/03/18 10:25:25;;;;;;;;;;;;;;;19.16;29.42;96152.56;7399125;19;925;-65
2024/03/18 10:27:53;;;;;;;;;;;;;;;19.19;29.90;96147.88;7399058;19;1017;-67
2024/03/18 10:30:22;;;;;;;;;;;;;;;19.37;27.63;96133.25;7398903;19;1093;-66
2024/03/18 10:32:51;;;;;;;;;;;;;;;19.44;26.87;96140.59;7398858;19;1457;-67
2024/03/18 10:35:21;;;;;;;;;;;;;;;19.34;28.44;96136.13;7398756;19;1112;-71
2024/03/18 10:37:55;;;;;;;;;;;;;;;19.40;27.21;96141.81;7398668;19;1001;-66
2024/03/18 10:40:34;;;;;;;;;;;;;;;19.53;29.04;96136.34;7398482;19;1116;-65
2024/03/18 10:43:04;;;;;;;;;;;;;;;19.36;29.12;96150.97;7397772;19;1850;-65
2024/03/18 10:45:34;;;;;;;;;;;;;;;19.16;28.10;96141.94;7398371;19;1014;-69
2024/03/18 10:48:04;;;;;;;;;;;;;;;19.15;29.43;96133.16;7398865;19;961;-66
2024/03/18 10:50:33;;;;;;;;;;;;;;;19.34;28.44;96122.88;7399059;19;1189;-65
2024/03/18 10:53:04;;;;;;;;;;;;;;;19.41;28.28;96129.38;7398232;19;1092;-67
2024/03/18 10:55:33;;;;;;;;;;;;;;;19.36;27.97;96115.66;7398125;19;1021;-68
2024/03/18 10:58:03;;;;;;;;;;;;;;;19.42;30.24;96108.03;7398340;19;1362;-68
2024/03/18 11:00:32;;;;;;;;;;;;;;;19.38;28.45;96111.91;7398280;19;993;-67
2024/03/18 11:03:01;;;;;;;;;;;;;;;19.35;28.82;96103.38;7397118;19;1835;-66
2024/03/18 11:05:30;;;;;;;;;;;;;;;19.13;29.02;96100.63;7397988;19;1490;-70
2024/03/18 11:08:01;;;;;;;;;;;;;;;18.90;28.97;96089.19;7398079;19;933;-68
2024/03/18 11:10:33;;;;;;;;;;;;;;;18.77;30.01;96107.84;7396732;19;1128;-66
2024/03/18 11:13:11;;;;;;;;;;;;;;;18.57;29.74;96102.28;7397867;19;942;-67
2024/03/18 11:15:42;;;;;;;;;;;;;;;18.36;30.99;96095.03;7397306;19;1120;-68
2024/03/18 11:18:11;;;;;;;;;;;;;;;18.51;30.33;96087.72;7397668;19;1643;-70
2024/03/18 11:20:48;;;;;;;;;;;;;;;18.44;29.52;96082.06;7397805;19;1179;-65
2024/03/18 11:23:20;;;;;;;;;;;;;;;18.60;29.43;96077.38;7396869;19;1853;-70
2024/03/18 11:25:56;;;;;;;;;;;;;;;18.57;29.72;96073.16;7397070;19;1139;-71
2024/03/18 11:28:34;;;;;;;;;;;;;;;18.60;28.85;96058.84;7396937;19;1038;-69
2024/03/18 11:31:03;;;;;;;;;;;;;;;18.30;29.59;96055.81;7397253;19;958;-71
2024/03/18 11:33:31;;;;;;;;;;;;;;;18.22;29.77;96053.78;7396745;19;1155;-64
2024/03/18 11:36:00;;;;;;;;;;;;;;;18.08;31.38;96043.34;7396689;19;1087;-68
2024/03/18 11:38:28;;;;;;;;;;;;;;;18.31;29.69;96050.38;7396925;19;1370;-67
2024/03/18 11:40:59;;;;;;;;;;;;;;;18.59;31.62;96042.13;7394376;19;1349;-65
2024/03/18 11:43:28;;;;;;;;;;;;;;;18.58;30.18;96034.28;7395848;19;1846;-69
2024/03/18 11:45:59;;;;;;;;;;;;;;;18.55;29.92;96049.44;7395316;19;1380;-66
2024/03/18 11:48:27;;;;;;;;;;;;;;;18.68;31.16;96028.16;7396289;19;1021;-66
2024/03/18 11:50:55;;;;;;;;;;;;;;;18.71;29.15;96028.84;7396688;19;1058;-67
2024/03/18 11:53:24;;;;;;;;;;;;;;;18.76;29.15;96030.19;7396411;19;1402;-69
2024/03/18 11:55:54;;;;;;;;;;;;;;;18.59;29.42;96020.94;7395967;19;1108;-68
2024/03/18 11:58:25;;;;;;;;;;;;;;;18.54;29.71;96021.28;7396484;19;1135;-68
2024/03/18 12:00:53;;;;;;;;;;;;;;;18.38;29.15;96023.44;7396321;19;1026;-70
2024/03/18 12:03:22;;;;;;;;;;;;;;;18.25;30.07;96012.97;7395290;19;1838;-69
2024/03/18 12:05:51;;;;;;;;;;;;;;;18.02;29.83;96019.06;7395735;19;1148;-67
2024/03/18 12:08:22;;;;;;;;;;;;;;;17.93;29.65;96012.66;7396508;19;1180;-66
2024/03/18 12:10:53;;;;;;;;;;;;;;;18.10;29.33;96005.28;7394831;19;1095;-65
2024/03/18 12:13:25;;;;;;;;;;;;;;;18.22;29.01;96008.78;7395559;19;1032;-70
2024/03/18 12:15:54;;;;;;;;;;;;;;;18.41;29.72;96007.31;7395440;19;1103;-70
2024/03/18 12:18:22;;;;;;;;;;;;;;;18.56;31.78;95999.97;7395625;19;1473;-66
2024/03/18 12:20:55;;;;;;;;;;;;;;;18.66;29.21;95997.47;7395278;19;1069;-67
2024/03/18 12:28:49;;;;;;;;;;;;;;;18.57;29.64;95985.75;7395281;19;758;-71
2024/03/18 12:31:21;;;;;;;;;;;;;;;18.54;30.83;95970.97;7394954;19;1025;-69
2024/03/18 12:33:50;;;;;;;;;;;;;;;18.63;29.52;95977.34;7394981;19;1022;-67
2024/03/18 12:36:19;;;;;;;;;;;;;;;18.81;28.56;95971.53;7395311;19;1278;-70
2024/03/18 12:38:48;;;;;;;;;;;;;;;18.97;28.92;95971.16;7394784;19;1010;-63
2024/03/18 12:41:18;;;;;;;;;;;;;;;19.01;29.02;95977.03;7395182;19;1508;-66
2024/03/18 12:43:50;;;;;;;;;;;;;;;18.90;28.01;95965.50;7394112;19;1865;-67
2024/03/18 12:46:19;;;;;;;;;;;;;;;18.84;28.47;95954.56;7394591;19;1033;-65
2024/03/18 12:48:48;;;;;;;;;;;;;;;18.65;29.12;95953.38;7394872;19;1486;-66
2024/03/18 12:51:20;;;;;;;;;;;;;;;18.61;29.40;95951.94;7394421;19;1018;-70
2024/03/18 12:53:49;;;;;;;;;;;;;;;18.61;28.15;95954.59;7394800;19;1026;-69
2024/03/18 12:56:19;;;;;;;;;;;;;;;18.68;29.28;95956.63;7394428;19;1034;-66
2024/03/18 12:58:50;;;;;;;;;;;;;;;18.83;29.17;95951.06;7401999;19;998;-67
2024/03/18 13:01:19;;;;;;;;;;;;;;;18.80;27.76;95946.00;7401865;19;1057;-71
2024/03/18 13:03:47;;;;;;;;;;;;;;;18.96;28.22;95948.25;7400837;19;1842;-65
2024/03/18 13:06:18;;;;;;;;;;;;;;;18.84;28.61;95950.09;7401693;19;1096;-66
2024/03/18 13:08:48;;;;;;;;;;;;;;;18.64;28.88;95941.97;7401678;19;1101;-67
2024/03/18 13:11:17;;;;;;;;;;;;;;;18.63;30.03;95952.69;7399888;19;1080;-66
2024/03/18 13:13:46;;;;;;;;;;;;;;;18.44;30.28;95947.03;7401583;19;1096;-68
2024/03/18 13:16:17;;;;;;;;;;;;;;;18.12;30.70;95941.66;7401703;19;1001;-66
2024/03/18 13:18:46;;;;;;;;;;;;;;;18.19;31.34;95940.19;7401679;19;961;-67